Terminal Aerodrome Forecast
Issued by NWS

Home | Current Version | Previous Version | Text Only | Print | Product List | Glossary On
Versions: 1 2 3 4 5 6 7 8 9 10 11 12 13 14 15 16 17
000
FTUS45 KRIW 281318 AAA
TAFCPR
TAF AMD
KCPR 281318Z 2813/2912 02012KT 2SM -SN SCT015 OVC030
      TEMPO 2813/2817 1/2SM -SN FZFG OVC008
     FM281700 08015G25KT 2SM -SN OVC008
     FM290100 05008KT 4SM -SN SCT008 OVC015
     FM290400 06009KT P6SM OVC022=

USA.gov is the U.S. government's official web portal to all federal, state and local government web resources and services.